Time;durP1;ratioP1;P1;durP2;ratioP2;P2;SDS_P1;SDS_P2;PMS_P1;PMS_P2;Temp;Humidity;BMP_temperature;BMP_pressure;BME280_temperature;BME280_humidity;BME280_pressure;Samples;Min_cycle;Max_cycle;Signal;HPM_P1;HPM_P2
2023/01/20 00:02:17;;;;;;;11.50;10.25;;;;;;;;;;5095138;28;20194;-60
2023/01/20 00:04:44;;;;;;;10.80;9.80;;;;;;;;;;5095126;28;20277;-60
2023/01/20 00:07:12;;;;;;;13.73;9.38;;;;;;;;;;5095054;28;20189;-60
2023/01/20 00:09:39;;;;;;;10.70;9.60;;;;;;;;;;5094790;28;20198;-60
2023/01/20 00:12:06;;;;;;;10.60;9.50;;;;;;;;;;5095098;28;20190;-60
2023/01/20 00:14:33;;;;;;;12.70;10.73;;;;;;;;;;5094950;28;20222;-60
2023/01/20 00:17:00;;;;;;;12.13;9.88;;;;;;;;;;5094830;28;20201;-60
2023/01/20 00:19:27;;;;;;;10.80;9.77;;;;;;;;;;5094693;28;20721;-60
2023/01/20 00:21:54;;;;;;;11.88;9.93;;;;;;;;;;5094659;28;20190;-60
2023/01/20 00:24:22;;;;;;;11.60;10.40;;;;;;;;;;5094519;28;20558;-60
2023/01/20 00:26:49;;;;;;;12.18;9.88;;;;;;;;;;5094751;28;20190;-60
2023/01/20 00:29:16;;;;;;;13.80;9.98;;;;;;;;;;5094698;28;20205;-60
2023/01/20 00:31:43;;;;;;;10.25;9.10;;;;;;;;;;5094620;28;20222;-60
2023/01/20 00:34:11;;;;;;;12.02;10.73;;;;;;;;;;5094315;28;20746;-59
2023/01/20 00:36:38;;;;;;;12.88;9.93;;;;;;;;;;5094304;28;20193;-60
2023/01/20 00:39:05;;;;;;;13.93;10.55;;;;;;;;;;5094379;28;20596;-60
2023/01/20 00:41:33;;;;;;;14.50;10.98;;;;;;;;;;5094134;28;20605;-60
2023/01/20 00:44:00;;;;;;;13.10;10.52;;;;;;;;;;5094183;28;20215;-60
2023/01/20 00:46:27;;;;;;;14.98;11.80;;;;;;;;;;5094401;28;20194;-60
2023/01/20 00:48:54;;;;;;;13.50;10.45;;;;;;;;;;5094219;28;20223;-60
2023/01/20 00:51:21;;;;;;;12.90;10.60;;;;;;;;;;5094009;28;20197;-60
2023/01/20 00:53:48;;;;;;;14.70;10.93;;;;;;;;;;5094216;28;20218;-60
2023/01/20 00:56:15;;;;;;;15.82;10.80;;;;;;;;;;5094238;28;20225;-60
2023/01/20 00:58:44;;;;;;;14.23;10.35;;;;;;;;;;5094137;28;20193;-60
2023/01/20 01:01:11;;;;;;;13.48;10.88;;;;;;;;;;5093976;28;20277;-60
2023/01/20 01:03:38;;;;;;;15.30;10.95;;;;;;;;;;5093867;28;20194;-60
2023/01/20 01:06:06;;;;;;;14.60;11.38;;;;;;;;;;5093808;28;20195;-60
2023/01/20 01:08:33;;;;;;;13.32;11.27;;;;;;;;;;5093999;28;20277;-60
2023/01/20 01:11:00;;;;;;;11.35;9.52;;;;;;;;;;5093838;28;20278;-60
2023/01/20 01:13:27;;;;;;;14.70;11.40;;;;;;;;;;5093586;28;20221;-60
2023/01/20 01:15:55;;;;;;;13.65;10.00;;;;;;;;;;5093759;28;20191;-60
2023/01/20 01:18:22;;;;;;;12.18;10.90;;;;;;;;;;5093596;28;20285;-60
2023/01/20 01:20:49;;;;;;;11.88;9.88;;;;;;;;;;5093773;28;20281;-60
2023/01/20 01:23:16;;;;;;;14.45;10.90;;;;;;;;;;5093690;28;20287;-60
2023/01/20 01:25:43;;;;;;;15.93;10.75;;;;;;;;;;5093484;28;20250;-60
2023/01/20 01:28:10;;;;;;;15.07;11.02;;;;;;;;;;5093542;28;20193;-60
2023/01/20 01:30:37;;;;;;;19.23;11.07;;;;;;;;;;5093470;28;20232;-60
2023/01/20 01:33:05;;;;;;;15.35;11.27;;;;;;;;;;5093752;28;20217;-60
2023/01/20 01:35:32;;;;;;;14.13;11.00;;;;;;;;;;5093578;28;20191;-60
2023/01/20 01:37:59;;;;;;;13.85;10.85;;;;;;;;;;5093414;28;20186;-60
2023/01/20 01:40:26;;;;;;;13.85;11.32;;;;;;;;;;5093457;28;20420;-60
2023/01/20 01:42:53;;;;;;;13.45;11.15;;;;;;;;;;5093455;28;20215;-60
2023/01/20 01:45:27;;;;;;;19.10;11.25;;;;;;;;;;5093114;28;20711;-60
2023/01/20 01:47:58;;;;;;;15.60;11.05;;;;;;;;;;5093135;28;20224;-60
2023/01/20 01:50:27;;;;;;;12.02;10.68;;;;;;;;;;5093335;28;20218;-60
2023/01/20 01:52:55;;;;;;;14.30;10.73;;;;;;;;;;5093001;28;20283;-60
2023/01/20 01:55:25;;;;;;;13.75;10.60;;;;;;;;;;5092586;28;20273;-60
2023/01/20 01:57:52;;;;;;;14.05;10.30;;;;;;;;;;5093074;28;20201;-60
2023/01/20 02:00:19;;;;;;;17.27;10.88;;;;;;;;;;5093001;28;20635;-60
2023/01/20 02:02:46;;;;;;;14.10;9.90;;;;;;;;;;5093206;28;20210;-60
2023/01/20 02:05:14;;;;;;;12.95;11.27;;;;;;;;;;5093242;28;20196;-60
2023/01/20 02:07:42;;;;;;;14.32;10.98;;;;;;;;;;5093074;28;20187;-60
2023/01/20 02:10:10;;;;;;;12.35;10.85;;;;;;;;;;5092943;28;20191;-60
2023/01/20 02:12:37;;;;;;;13.07;10.05;;;;;;;;;;5092850;28;20285;-60
2023/01/20 02:15:04;;;;;;;12.55;10.77;;;;;;;;;;5092994;28;20576;-60
2023/01/20 02:17:32;;;;;;;14.45;10.68;;;;;;;;;;5092946;28;20202;-60
2023/01/20 02:20:18;;;;;;;12.70;10.57;;;;;;;;;;5092779;28;20194;-60
2023/01/20 02:22:51;;;;;;;16.77;11.20;;;;;;;;;;5092741;28;20643;-60
2023/01/20 02:25:39;;;;;;;12.85;10.80;;;;;;;;;;5092761;28;20207;-60
2023/01/20 02:28:24;;;;;;;14.73;10.65;;;;;;;;;;5088111;28;20245;-60
2023/01/20 02:30:59;;;;;;;15.32;11.02;;;;;;;;;;5092692;28;20711;-60
2023/01/20 02:33:29;;;;;;;11.63;10.43;;;;;;;;;;5092683;28;20218;-60
2023/01/20 02:35:57;;;;;;;13.85;11.38;;;;;;;;;;5092721;28;20187;-60
2023/01/20 02:38:28;;;;;;;16.85;10.90;;;;;;;;;;5092804;28;20197;-60
2023/01/20 02:40:58;;;;;;;12.85;10.55;;;;;;;;;;5092733;28;20282;-60
2023/01/20 02:43:32;;;;;;;11.93;10.32;;;;;;;;;;5092481;28;20210;-60
2023/01/20 02:46:04;;;;;;;16.13;9.90;;;;;;;;;;5092599;28;20402;-60
2023/01/20 02:48:34;;;;;;;20.48;10.68;;;;;;;;;;5092719;28;20194;-60
2023/01/20 02:51:03;;;;;;;12.80;10.45;;;;;;;;;;5092642;28;20199;-60
2023/01/20 02:53:33;;;;;;;12.30;9.73;;;;;;;;;;5092502;28;20305;-60
2023/01/20 02:56:00;;;;;;;13.30;10.38;;;;;;;;;;5092500;28;20203;-60
2023/01/20 02:58:30;;;;;;;11.65;9.82;;;;;;;;;;5092359;28;20202;-60
2023/01/20 03:00:59;;;;;;;13.93;10.32;;;;;;;;;;5092725;28;20548;-60
2023/01/20 03:03:29;;;;;;;13.68;10.75;;;;;;;;;;5092570;28;20233;-60
2023/01/20 03:05:58;;;;;;;18.17;10.50;;;;;;;;;;5094785;28;20218;-60
2023/01/20 03:08:27;;;;;;;12.27;9.55;;;;;;;;;;5096173;28;20285;-59
2023/01/20 03:10:55;;;;;;;12.23;9.68;;;;;;;;;;5096110;28;20196;-60
2023/01/20 03:13:24;;;;;;;13.27;10.10;;;;;;;;;;5096132;28;20550;-60
2023/01/20 03:15:55;;;;;;;16.10;10.95;;;;;;;;;;5096126;28;20700;-60
2023/01/20 03:18:22;;;;;;;18.63;12.82;;;;;;;;;;5096086;28;20278;-60
2023/01/20 03:20:49;;;;;;;21.63;14.23;;;;;;;;;;5095938;28;20579;-59
2023/01/20 03:23:18;;;;;;;19.42;14.70;;;;;;;;;;5095904;28;20281;-60
2023/01/20 03:25:46;;;;;;;21.70;15.25;;;;;;;;;;5096067;28;20553;-59
2023/01/20 03:28:13;;;;;;;20.92;13.75;;;;;;;;;;5095959;28;20583;-60
2023/01/20 03:30:40;;;;;;;20.67;13.68;;;;;;;;;;5095762;28;20719;-60
2023/01/20 03:33:08;;;;;;;18.08;13.07;;;;;;;;;;5095789;28;20198;-59
2023/01/20 03:35:35;;;;;;;15.00;12.30;;;;;;;;;;5095597;28;20306;-59
2023/01/20 03:38:02;;;;;;;13.65;11.48;;;;;;;;;;5095523;28;20282;-60
2023/01/20 03:40:32;;;;;;;17.65;11.23;;;;;;;;;;5095815;28;20195;-60
2023/01/20 03:43:01;;;;;;;15.30;10.90;;;;;;;;;;5095619;28;20202;-60
2023/01/20 03:45:34;;;;;;;14.93;10.88;;;;;;;;;;5095685;28;20226;-60
2023/01/20 03:48:07;;;;;;;11.10;8.50;;;;;;;;;;5095393;28;20288;-60
2023/01/20 03:50:37;;;;;;;14.02;9.80;;;;;;;;;;5095467;28;20194;-60
2023/01/20 03:53:07;;;;;;;13.52;9.30;;;;;;;;;;5095353;28;20187;-60
2023/01/20 03:55:37;;;;;;;11.02;9.40;;;;;;;;;;5095454;28;20226;-60
2023/01/20 03:58:07;;;;;;;10.40;9.40;;;;;;;;;;5095507;28;20638;-60
2023/01/20 04:00:35;;;;;;;11.45;8.32;;;;;;;;;;5095224;28;20194;-60
2023/01/20 04:03:05;;;;;;;16.00;9.82;;;;;;;;;;5095047;28;20198;-60
2023/01/20 04:05:32;;;;;;;13.05;9.05;;;;;;;;;;5095182;28;20204;-60
2023/01/20 04:08:02;;;;;;;13.85;9.02;;;;;;;;;;5095100;28;20193;-60
2023/01/20 04:10:30;;;;;;;11.50;9.13;;;;;;;;;;5095105;28;20195;-60
2023/01/20 04:12:58;;;;;;;9.57;8.07;;;;;;;;;;5094879;28;20202;-60
2023/01/20 04:15:26;;;;;;;18.02;8.35;;;;;;;;;;5094823;28;20271;-60
2023/01/20 04:17:53;;;;;;;13.10;8.95;;;;;;;;;;5094338;28;20190;-60
2023/01/20 04:20:20;;;;;;;12.20;9.10;;;;;;;;;;5094806;28;20195;-60
2023/01/20 04:22:49;;;;;;;13.85;9.25;;;;;;;;;;5094815;28;20191;-60
2023/01/20 04:25:21;;;;;;;11.43;8.77;;;;;;;;;;5094706;28;20195;-60
2023/01/20 04:27:48;;;;;;;9.70;8.35;;;;;;;;;;5094597;28;20650;-60
2023/01/20 04:30:16;;;;;;;14.57;8.93;;;;;;;;;;5094448;28;20190;-60
2023/01/20 04:32:43;;;;;;;10.80;8.50;;;;;;;;;;5094591;28;20191;-60
2023/01/20 04:35:11;;;;;;;14.85;9.40;;;;;;;;;;5094470;28;20309;-60
2023/01/20 04:37:38;;;;;;;17.77;11.07;;;;;;;;;;5094368;28;20206;-60
2023/01/20 04:40:06;;;;;;;11.32;8.95;;;;;;;;;;5094388;28;20197;-60
2023/01/20 04:42:33;;;;;;;17.50;10.60;;;;;;;;;;5094229;28;20197;-60
2023/01/20 04:44:59;;;;;;;15.20;8.82;;;;;;;;;;5094174;28;20225;-60
2023/01/20 04:47:30;;;;;;;12.13;10.15;;;;;;;;;;5094330;28;20281;-60
2023/01/20 04:49:57;;;;;;;11.27;9.80;;;;;;;;;;5094289;28;20189;-60
2023/01/20 04:52:24;;;;;;;19.60;11.82;;;;;;;;;;5094150;28;20186;-60
2023/01/20 04:54:51;;;;;;;15.07;10.25;;;;;;;;;;5094021;28;20218;-60
2023/01/20 04:57:17;;;;;;;17.33;9.77;;;;;;;;;;5093930;28;20186;-60
2023/01/20 04:59:44;;;;;;;12.43;9.48;;;;;;;;;;5094144;28;20545;-60
2023/01/20 05:02:11;;;;;;;12.90;9.80;;;;;;;;;;5094059;28;20192;-60
2023/01/20 05:04:40;;;;;;;14.40;10.35;;;;;;;;;;5093984;28;20376;-60
2023/01/20 05:07:06;;;;;;;12.82;9.15;;;;;;;;;;5093978;28;20601;-60
2023/01/20 05:09:33;;;;;;;13.23;11.07;;;;;;;;;;5093708;28;20202;-60
2023/01/20 05:12:00;;;;;;;14.40;11.63;;;;;;;;;;5093781;28;20285;-60
2023/01/20 05:14:27;;;;;;;15.18;11.70;;;;;;;;;;5093862;28;20568;-60
2023/01/20 05:16:54;;;;;;;16.00;12.25;;;;;;;;;;5093834;28;20190;-60
2023/01/20 05:19:21;;;;;;;17.38;11.05;;;;;;;;;;5093702;28;20241;-60
2023/01/20 05:21:49;;;;;;;14.88;11.63;;;;;;;;;;5093596;28;20297;-60
2023/01/20 05:24:16;;;;;;;14.48;10.27;;;;;;;;;;5093567;28;20558;-60
2023/01/20 05:26:43;;;;;;;14.60;12.20;;;;;;;;;;5093734;28;20201;-60
2023/01/20 05:29:10;;;;;;;14.18;10.50;;;;;;;;;;5092636;28;20190;-60
2023/01/20 05:31:41;;;;;;;19.17;11.20;;;;;;;;;;5093514;28;20198;-60
2023/01/20 05:34:08;;;;;;;16.13;10.18;;;;;;;;;;5093368;28;20616;-60
2023/01/20 05:36:35;;;;;;;15.40;10.60;;;;;;;;;;5093296;28;20190;-60
2023/01/20 05:39:04;;;;;;;18.55;10.77;;;;;;;;;;5093508;28;20194;-60
2023/01/20 05:41:30;;;;;;;16.85;11.20;;;;;;;;;;5093423;28;20514;-60
2023/01/20 05:43:57;;;;;;;21.02;12.00;;;;;;;;;;5093106;28;20581;-60
2023/01/20 05:46:24;;;;;;;17.88;12.90;;;;;;;;;;5093342;28;20348;-60
2023/01/20 05:48:51;;;;;;;16.10;12.07;;;;;;;;;;5093097;28;20202;-60
2023/01/20 05:51:18;;;;;;;18.45;12.75;;;;;;;;;;5093073;28;20196;-60
2023/01/20 05:53:45;;;;;;;18.02;13.95;;;;;;;;;;5093249;28;20191;-60
2023/01/20 05:56:14;;;;;;;24.15;15.05;;;;;;;;;;5093066;28;20218;-60
2023/01/20 05:58:41;;;;;;;20.00;13.02;;;;;;;;;;5093058;28;20281;-60
2023/01/20 06:01:09;;;;;;;15.93;12.65;;;;;;;;;;5093033;28;20282;-60
2023/01/20 06:03:37;;;;;;;15.57;11.60;;;;;;;;;;5092944;28;20563;-60
2023/01/20 06:06:05;;;;;;;22.40;14.23;;;;;;;;;;5092731;28;20736;-60
2023/01/20 06:08:32;;;;;;;15.93;11.55;;;;;;;;;;5092951;28;20223;-60
2023/01/20 06:10:59;;;;;;;16.38;12.30;;;;;;;;;;5092906;28;20241;-60
2023/01/20 06:13:28;;;;;;;17.13;13.38;;;;;;;;;;5092943;28;20281;-60
2023/01/20 06:15:55;;;;;;;17.83;13.95;;;;;;;;;;5092732;28;20225;-60
2023/01/20 06:18:23;;;;;;;38.38;21.95;;;;;;;;;;5092729;28;20187;-60
2023/01/20 06:20:50;;;;;;;21.30;13.95;;;;;;;;;;5093092;28;20202;-60
2023/01/20 06:23:17;;;;;;;19.85;12.73;;;;;;;;;;5092879;28;20193;-60
2023/01/20 06:25:43;;;;;;;17.40;12.70;;;;;;;;;;5092736;28;20187;-60
2023/01/20 06:28:10;;;;;;;14.68;12.70;;;;;;;;;;5092798;28;20279;-60
2023/01/20 06:30:41;;;;;;;17.25;13.00;;;;;;;;;;5092515;28;20218;-60
2023/01/20 06:33:09;;;;;;;18.33;13.43;;;;;;;;;;5092705;28;20617;-60
2023/01/20 06:35:36;;;;;;;22.38;13.38;;;;;;;;;;5092724;28;20223;-61
2023/01/20 06:38:03;;;;;;;21.80;14.02;;;;;;;;;;5092497;28;20190;-60
2023/01/20 06:40:30;;;;;;;24.75;14.18;;;;;;;;;;5094295;28;20228;-60
2023/01/20 06:42:58;;;;;;;20.13;12.88;;;;;;;;;;5096569;28;20190;-60
2023/01/20 06:45:25;;;;;;;17.77;13.02;;;;;;;;;;5096238;28;20227;-61
2023/01/20 06:47:53;;;;;;;21.77;14.30;;;;;;;;;;5096187;28;20194;-60
2023/01/20 06:50:20;;;;;;;20.92;15.43;;;;;;;;;;5096435;28;20285;-60
2023/01/20 06:52:47;;;;;;;20.80;14.80;;;;;;;;;;5096351;28;20205;-60
2023/01/20 06:55:14;;;;;;;20.95;14.70;;;;;;;;;;5096112;28;20221;-60
2023/01/20 06:57:41;;;;;;;19.83;14.60;;;;;;;;;;5096156;28;20198;-60
2023/01/20 07:00:08;;;;;;;21.60;14.05;;;;;;;;;;5095904;28;20198;-61
2023/01/20 07:02:35;;;;;;;20.35;15.82;;;;;;;;;;5096117;28;20550;-60
2023/01/20 07:05:06;;;;;;;21.90;14.43;;;;;;;;;;5096345;28;20199;-60
2023/01/20 07:07:34;;;;;;;21.20;14.40;;;;;;;;;;5096237;28;20191;-61
2023/01/20 07:10:01;;;;;;;14.85;11.82;;;;;;;;;;5096131;28;20251;-60
2023/01/20 07:12:27;;;;;;;16.52;14.30;;;;;;;;;;5095919;28;20195;-61
2023/01/20 07:14:54;;;;;;;17.27;13.65;;;;;;;;;;5095684;28;20546;-60
2023/01/20 07:17:21;;;;;;;22.50;16.30;;;;;;;;;;5096072;28;20281;-60
2023/01/20 07:19:48;;;;;;;21.77;14.85;;;;;;;;;;5095993;28;20525;-60
2023/01/20 07:22:16;;;;;;;24.15;14.68;;;;;;;;;;5095776;28;20197;-60
2023/01/20 07:24:43;;;;;;;21.48;16.02;;;;;;;;;;5095760;28;20277;-61
2023/01/20 07:27:10;;;;;;;20.75;15.20;;;;;;;;;;5095696;28;20548;-60
2023/01/20 07:29:37;;;;;;;24.30;16.60;;;;;;;;;;5095808;28;20191;-60
2023/01/20 07:32:04;;;;;;;26.95;17.70;;;;;;;;;;5095775;28;20557;-60
2023/01/20 07:34:31;;;;;;;27.98;17.90;;;;;;;;;;5095587;28;20222;-60
2023/01/20 07:37:00;;;;;;;23.90;17.98;;;;;;;;;;5095469;28;20671;-60
2023/01/20 07:39:28;;;;;;;29.27;18.77;;;;;;;;;;5095397;28;20244;-60
2023/01/20 07:41:55;;;;;;;30.25;17.42;;;;;;;;;;5095251;28;20221;-60
2023/01/20 07:44:22;;;;;;;26.58;17.77;;;;;;;;;;5095112;28;20716;-61
2023/01/20 07:46:50;;;;;;;31.38;18.85;;;;;;;;;;5095496;28;20201;-61
2023/01/20 07:49:17;;;;;;;22.25;17.40;;;;;;;;;;5095427;28;20243;-60
2023/01/20 07:51:44;;;;;;;25.08;16.70;;;;;;;;;;5094053;28;20197;-60
2023/01/20 07:54:11;;;;;;;26.25;18.38;;;;;;;;;;5095005;28;20676;-60
2023/01/20 07:56:40;;;;;;;24.75;17.90;;;;;;;;;;5095290;28;20229;-60
2023/01/20 07:59:07;;;;;;;26.70;18.90;;;;;;;;;;5095231;28;20237;-60
2023/01/20 08:01:34;;;;;;;25.63;16.75;;;;;;;;;;5095194;28;20190;-60
2023/01/20 08:04:01;;;;;;;28.23;16.67;;;;;;;;;;5095005;28;20199;-60
2023/01/20 08:06:28;;;;;;;26.73;18.45;;;;;;;;;;5094853;28;20199;-60
2023/01/20 08:08:55;;;;;;;30.15;17.90;;;;;;;;;;5094791;28;20191;-60
2023/01/20 08:11:23;;;;;;;26.77;18.75;;;;;;;;;;5094893;28;20547;-61
2023/01/20 08:13:51;;;;;;;25.83;19.08;;;;;;;;;;5094921;28;20708;-60
2023/01/20 08:16:18;;;;;;;24.17;17.38;;;;;;;;;;5094504;28;20681;-61
2023/01/20 08:18:46;;;;;;;22.20;16.83;;;;;;;;;;5094737;28;20190;-61
2023/01/20 08:21:20;;;;;;;31.05;18.15;;;;;;;;;;5094753;28;20276;-60
2023/01/20 08:23:47;;;;;;;29.05;19.02;;;;;;;;;;5094618;28;20203;-60
2023/01/20 08:26:15;;;;;;;29.05;19.98;;;;;;;;;;5094516;28;20294;-61
2023/01/20 08:28:42;;;;;;;27.02;18.25;;;;;;;;;;5094376;28;20281;-61
2023/01/20 08:31:12;;;;;;;30.40;17.35;;;;;;;;;;5090743;28;20199;-60
2023/01/20 08:33:41;;;;;;;31.85;16.98;;;;;;;;;;5085300;28;20182;-60
2023/01/20 08:36:09;;;;;;;30.85;16.73;;;;;;;;;;5082465;28;20264;-60
2023/01/20 08:38:37;;;;;;;29.65;17.15;;;;;;;;;;5091282;28;20288;-61
2023/01/20 08:41:07;;;;;;;23.38;15.40;;;;;;;;;;5081588;28;20653;-61
2023/01/20 08:43:34;;;;;;;25.50;16.08;;;;;;;;;;5082670;28;20282;-61
2023/01/20 08:46:01;;;;;;;31.05;16.98;;;;;;;;;;5083092;28;20234;-61
2023/01/20 08:48:30;;;;;;;25.20;17.25;;;;;;;;;;5092337;28;20290;-60
2023/01/20 08:50:57;;;;;;;25.27;15.23;;;;;;;;;;5073957;28;20187;-60
2023/01/20 08:53:24;;;;;;;26.02;17.15;;;;;;;;;;5080957;28;20219;-61
2023/01/20 08:55:57;;;;;;;26.50;16.90;;;;;;;;;;5083528;28;20566;-60
2023/01/20 08:58:25;;;;;;;23.42;15.43;;;;;;;;;;5073628;28;20203;-61
2023/01/20 09:00:52;;;;;;;24.42;15.48;;;;;;;;;;5073277;28;20244;-61
2023/01/20 09:03:19;;;;;;;29.63;15.48;;;;;;;;;;5090820;28;20209;-61
2023/01/20 09:05:47;;;;;;;25.67;16.08;;;;;;;;;;5093798;28;20554;-60
2023/01/20 09:08:16;;;;;;;23.40;16.25;;;;;;;;;;5084361;28;20472;-60
2023/01/20 09:10:42;;;;;;;26.17;17.42;;;;;;;;;;5073375;28;20271;-61
2023/01/20 09:13:10;;;;;;;28.98;18.35;;;;;;;;;;5073239;28;20220;-61
2023/01/20 09:15:37;;;;;;;26.00;17.00;;;;;;;;;;5072665;28;20211;-60
2023/01/20 09:18:04;;;;;;;25.40;16.77;;;;;;;;;;5080615;28;20190;-60
2023/01/20 09:20:31;;;;;;;26.60;16.65;;;;;;;;;;5087552;28;20756;-61
2023/01/20 09:23:02;;;;;;;27.63;18.35;;;;;;;;;;5084004;28;20183;-61
2023/01/20 09:25:29;;;;;;;24.50;16.85;;;;;;;;;;5081785;28;20190;-61
2023/01/20 09:27:56;;;;;;;26.35;16.17;;;;;;;;;;5083484;28;20174;-61
2023/01/20 09:30:23;;;;;;;23.85;16.45;;;;;;;;;;5082372;28;20276;-61
2023/01/20 09:32:52;;;;;;;26.83;16.42;;;;;;;;;;5083795;28;20205;-61
2023/01/20 09:35:19;;;;;;;23.75;16.30;;;;;;;;;;5078843;28;20186;-61
2023/01/20 09:46:15;;;;;;;25.08;16.83;;;;;;;;;;5083644;28;20275;-61
2023/01/20 09:54:23;;;;;;;28.30;16.33;;;;;;;;;;5081941;28;20324;-61
2023/01/20 09:56:53;;;;;;;24.95;17.20;;;;;;;;;;5081712;28;20220;-61
2023/01/20 09:59:23;;;;;;;32.65;17.75;;;;;;;;;;5081575;28;20207;-61
2023/01/20 10:01:51;;;;;;;23.38;16.77;;;;;;;;;;5081857;28;20529;-62
2023/01/20 10:04:21;;;;;;;31.20;18.27;;;;;;;;;;5081390;28;20183;-61
2023/01/20 10:06:50;;;;;;;23.17;15.32;;;;;;;;;;5082014;28;20181;-61
2023/01/20 10:09:20;;;;;;;26.30;17.02;;;;;;;;;;5092565;28;20654;-61
2023/01/20 10:11:49;;;;;;;22.58;16.45;;;;;;;;;;5092760;28;20233;-61
2023/01/20 10:14:19;;;;;;;24.85;17.42;;;;;;;;;;5093664;28;20545;-61
2023/01/20 10:16:50;;;;;;;22.90;15.57;;;;;;;;;;5099447;28;20227;-61
2023/01/20 10:19:19;;;;;;;25.85;15.80;;;;;;;;;;5099466;28;20195;-61
2023/01/20 10:21:48;;;;;;;25.20;15.40;;;;;;;;;;5099344;28;20281;-61
2023/01/20 10:24:18;;;;;;;24.90;16.55;;;;;;;;;;5099150;28;20281;-61
2023/01/20 10:26:49;;;;;;;25.17;16.40;;;;;;;;;;5087027;28;20281;-61
2023/01/20 10:29:20;;;;;;;25.75;16.48;;;;;;;;;;5079210;28;20191;-61
2023/01/20 10:31:50;;;;;;;22.02;15.77;;;;;;;;;;5085662;28;20277;-60
2023/01/20 10:34:19;;;;;;;24.00;16.10;;;;;;;;;;5099278;28;20185;-61
2023/01/20 10:36:49;;;;;;;28.88;17.25;;;;;;;;;;5099002;28;20213;-60
2023/01/20 10:39:22;;;;;;;24.30;16.15;;;;;;;;;;5099694;28;20598;-61
2023/01/20 10:41:51;;;;;;;23.63;16.75;;;;;;;;;;5099617;28;20565;-61
2023/01/20 10:44:19;;;;;;;26.05;16.13;;;;;;;;;;5099111;28;20218;-61
2023/01/20 10:46:53;;;;;;;25.13;16.70;;;;;;;;;;5089795;28;20179;-61
2023/01/20 10:49:32;;;;;;;23.08;15.73;;;;;;;;;;5088062;28;20194;-61
2023/01/20 10:52:08;;;;;;;28.65;17.08;;;;;;;;;;5096764;28;20196;-61
2023/01/20 10:54:40;;;;;;;26.95;18.70;;;;;;;;;;5099365;28;20220;-61
2023/01/20 10:57:10;;;;;;;28.05;18.48;;;;;;;;;;5099135;28;20680;-61
2023/01/20 10:59:41;;;;;;;25.88;16.77;;;;;;;;;;5093200;28;20276;-61
2023/01/20 11:02:14;;;;;;;32.15;17.58;;;;;;;;;;5099301;28;20548;-61
2023/01/20 11:04:41;;;;;;;32.83;18.13;;;;;;;;;;5099254;28;20194;-61
2023/01/20 11:07:13;;;;;;;28.23;17.70;;;;;;;;;;5098886;28;20198;-61
2023/01/20 11:09:41;;;;;;;34.00;18.10;;;;;;;;;;5099197;28;20248;-61
2023/01/20 11:12:11;;;;;;;25.98;17.15;;;;;;;;;;5098687;28;20193;-61
2023/01/20 11:14:39;;;;;;;24.67;17.60;;;;;;;;;;5098795;28;20762;-61
2023/01/20 11:17:07;;;;;;;32.78;19.50;;;;;;;;;;5098963;28;20222;-61
2023/01/20 11:19:51;;;;;;;27.25;17.50;;;;;;;;;;5099032;28;20190;-61
2023/01/20 11:22:21;;;;;;;29.50;18.63;;;;;;;;;;5098964;28;20287;-61
2023/01/20 11:24:49;;;;;;;29.63;19.08;;;;;;;;;;5098746;28;20653;-61
2023/01/20 11:27:17;;;;;;;28.95;18.35;;;;;;;;;;5087422;28;20214;-61
2023/01/20 11:29:49;;;;;;;34.22;18.83;;;;;;;;;;5083943;28;20279;-61
2023/01/20 11:32:38;;;;;;;27.70;17.52;;;;;;;;;;5085032;28;20185;-61
2023/01/20 11:35:19;;;;;;;35.42;19.13;;;;;;;;;;5079728;28;20611;-61
2023/01/20 11:37:46;;;;;;;29.67;17.73;;;;;;;;;;5084060;28;20302;-61
2023/01/20 11:40:18;;;;;;;34.85;18.77;;;;;;;;;;5088832;28;20189;-61
2023/01/20 11:42:46;;;;;;;27.52;17.92;;;;;;;;;;5078929;28;20549;-61
2023/01/20 11:45:25;;;;;;;29.00;17.33;;;;;;;;;;5085574;28;20309;-61
2023/01/20 11:48:00;;;;;;;28.50;17.60;;;;;;;;;;5084042;28;20195;-61
2023/01/20 11:50:28;;;;;;;32.63;17.52;;;;;;;;;;5075150;28;20186;-61
2023/01/20 11:53:11;;;;;;;28.75;17.73;;;;;;;;;;5074734;28;20190;-61
2023/01/20 11:55:45;;;;;;;25.27;17.40;;;;;;;;;;5074897;28;20713;-61
2023/01/20 11:58:16;;;;;;;24.55;16.52;;;;;;;;;;5074719;28;20316;-61
2023/01/20 12:00:45;;;;;;;24.20;16.23;;;;;;;;;;5074622;28;20300;-61
2023/01/20 12:03:22;;;;;;;34.40;18.50;;;;;;;;;;5074844;28;20201;-61
2023/01/20 12:05:52;;;;;;;25.98;15.73;;;;;;;;;;5074821;28;20208;-61
2023/01/20 12:08:22;;;;;;;29.15;18.08;;;;;;;;;;5074683;28;20280;-61
2023/01/20 12:10:50;;;;;;;27.75;17.48;;;;;;;;;;5074931;28;20183;-61
2023/01/20 12:13:18;;;;;;;25.33;17.50;;;;;;;;;;5074667;28;20193;-61
2023/01/20 12:15:51;;;;;;;29.27;18.73;;;;;;;;;;5074598;28;20186;-61
2023/01/20 12:18:20;;;;;;;29.67;17.10;;;;;;;;;;5074445;28;20215;-61
2023/01/20 12:20:49;;;;;;;28.67;18.17;;;;;;;;;;5074464;28;20186;-61
2023/01/20 12:23:20;;;;;;;41.38;18.85;;;;;;;;;;5074398;28;20197;-61
2023/01/20 12:25:49;;;;;;;32.60;19.35;;;;;;;;;;5074524;28;20187;-61
2023/01/20 12:28:19;;;;;;;27.30;17.70;;;;;;;;;;5074105;28;20590;-61
2023/01/20 12:30:50;;;;;;;29.10;20.15;;;;;;;;;;5074235;28;20190;-61
2023/01/20 12:33:20;;;;;;;23.77;17.15;;;;;;;;;;5073963;28;20191;-61
2023/01/20 12:35:55;;;;;;;26.58;18.30;;;;;;;;;;5073915;28;20206;-61
2023/01/20 12:38:23;;;;;;;28.65;18.38;;;;;;;;;;5073658;28;20228;-61
2023/01/20 12:40:51;;;;;;;28.77;18.63;;;;;;;;;;5074139;28;20205;-61
2023/01/20 12:43:33;;;;;;;27.88;17.88;;;;;;;;;;5073809;28;20187;-61
2023/01/20 12:46:09;;;;;;;29.10;17.73;;;;;;;;;;5073925;28;20550;-61
2023/01/20 12:48:43;;;;;;;30.58;20.10;;;;;;;;;;5074112;28;20200;-61
2023/01/20 12:51:15;;;;;;;36.53;19.25;;;;;;;;;;5073888;28;20194;-61
2023/01/20 12:53:48;;;;;;;32.72;18.10;;;;;;;;;;5073809;28;20201;-61
2023/01/20 12:56:22;;;;;;;30.02;19.35;;;;;;;;;;5073590;28;20236;-61
2023/01/20 12:58:55;;;;;;;28.40;18.40;;;;;;;;;;5073921;28;20199;-61
2023/01/20 13:01:30;;;;;;;32.83;19.20;;;;;;;;;;5073792;28;20206;-61
2023/01/20 13:04:05;;;;;;;25.33;18.23;;;;;;;;;;5073656;28;20549;-61
2023/01/20 13:06:41;;;;;;;35.83;18.98;;;;;;;;;;5073665;28;20232;-61
2023/01/20 13:09:16;;;;;;;31.40;19.77;;;;;;;;;;5073414;28;20195;-61
2023/01/20 13:11:48;;;;;;;27.15;18.15;;;;;;;;;;5073659;28;20196;-61
2023/01/20 13:14:16;;;;;;;34.15;19.42;;;;;;;;;;5073325;28;20211;-61
2023/01/20 13:16:49;;;;;;;28.15;19.02;;;;;;;;;;5073343;28;20252;-61
2023/01/20 13:19:17;;;;;;;31.25;18.75;;;;;;;;;;5073212;28;20793;-61
2023/01/20 13:21:45;;;;;;;28.98;18.80;;;;;;;;;;5073509;28;20274;-61
2023/01/20 13:24:17;;;;;;;31.00;19.00;;;;;;;;;;5073328;28;20192;-61
2023/01/20 13:26:45;;;;;;;27.00;18.20;;;;;;;;;;5073248;28;20607;-61
2023/01/20 13:29:21;;;;;;;32.05;19.88;;;;;;;;;;5073149;28;20279;-61
2023/01/20 13:31:50;;;;;;;34.65;20.52;;;;;;;;;;5072956;28;20217;-61
2023/01/20 13:34:36;;;;;;;27.85;18.63;;;;;;;;;;5073067;28;20186;-61
2023/01/20 13:37:23;;;;;;;32.58;20.38;;;;;;;;;;5072911;28;20214;-61
2023/01/20 13:39:50;;;;;;;31.95;17.58;;;;;;;;;;5072750;28;20231;-61
2023/01/20 13:42:48;;;;;;;27.92;17.40;;;;;;;;;;5072801;28;20227;-61
2023/01/20 13:45:17;;;;;;;34.00;19.77;;;;;;;;;;5072510;28;20254;-61
2023/01/20 13:47:51;;;;;;;34.92;22.25;;;;;;;;;;5072782;28;20197;-61
2023/01/20 13:50:22;;;;;;;27.13;18.98;;;;;;;;;;5071852;28;20191;-61
2023/01/20 13:53:02;;;;;;;31.00;19.58;;;;;;;;;;5072565;28;20194;-61
2023/01/20 13:55:29;;;;;;;27.80;18.15;;;;;;;;;;5072689;28;20192;-61
2023/01/20 13:57:56;;;;;;;31.63;18.30;;;;;;;;;;5072608;28;20358;-61
2023/01/20 14:00:24;;;;;;;28.30;19.88;;;;;;;;;;5072634;28;20191;-61
2023/01/20 14:02:52;;;;;;;27.95;18.80;;;;;;;;;;5072591;28;20197;-61
2023/01/20 14:05:20;;;;;;;27.65;17.98;;;;;;;;;;5072425;28;20277;-61
2023/01/20 14:07:47;;;;;;;29.63;19.75;;;;;;;;;;5072634;28;20277;-61
2023/01/20 14:10:14;;;;;;;26.27;18.42;;;;;;;;;;5072595;28;20282;-61
2023/01/20 14:12:42;;;;;;;31.10;20.40;;;;;;;;;;5072473;28;20303;-61
2023/01/20 14:15:22;;;;;;;33.17;21.13;;;;;;;;;;5072434;28;20278;-61
2023/01/20 14:17:54;;;;;;;29.95;19.55;;;;;;;;;;5072364;28;20253;-61
2023/01/20 14:20:23;;;;;;;30.00;19.63;;;;;;;;;;5072580;28;20209;-61
2023/01/20 14:22:50;;;;;;;34.85;21.05;;;;;;;;;;5072466;28;20194;-61
2023/01/20 14:25:20;;;;;;;33.58;21.27;;;;;;;;;;5072330;28;20191;-61
2023/01/20 14:27:47;;;;;;;36.38;22.17;;;;;;;;;;5072128;28;20261;-61
2023/01/20 14:30:15;;;;;;;34.20;20.85;;;;;;;;;;5072323;28;20190;-61
2023/01/20 14:32:42;;;;;;;33.67;22.45;;;;;;;;;;5072464;28;20611;-61
2023/01/20 14:35:14;;;;;;;27.27;18.55;;;;;;;;;;5072421;28;20624;-61
2023/01/20 14:37:41;;;;;;;28.05;19.13;;;;;;;;;;5072069;28;20306;-61
2023/01/20 14:40:16;;;;;;;31.92;19.90;;;;;;;;;;5072195;28;20549;-61
2023/01/20 14:42:54;;;;;;;33.85;21.58;;;;;;;;;;5072143;28;20798;-61
2023/01/20 14:45:23;;;;;;;29.08;18.52;;;;;;;;;;5071986;28;20222;-61